Time,TemperatureF,DewpointF,PressureIn,WindDirection,WindDirectionDegrees,WindSpeedMPH,WindSpeedGustMPH,Humidity,HourlyPrecipIn,Conditions,Clouds,dailyrainin,SoftwareType,DateUTC
2013-04-03 00:00:00,28.9,23.0,29.17,WSW,247,11.0,13.0,73,0.00,,,0.00,Rainwise IP-100,2013-04-03 04:00:00,
2013-04-03 00:01:00,29.0,23.0,29.17,WSW,247,9.0,13.0,73,0.00,,,0.00,Rainwise IP-100,2013-04-03 04:01:00,
2013-04-03 00:06:00,29.1,23.0,29.17,WSW,247,12.0,16.0,72,0.00,,,0.00,Rainwise IP-100,2013-04-03 04:06:00,
2013-04-03 00:11:00,29.1,23.0,29.17,WSW,247,4.0,14.0,73,0.00,,,0.00,Rainwise IP-100,2013-04-03 04:11:00,
2013-04-03 00:17:00,28.9,23.0,29.17,WSW,247,9.0,14.0,74,0.00,,,0.00,Rainwise IP-100,2013-04-03 04:17:00,
2013-04-03 00:21:00,28.9,23.0,29.17,WSW,247,12.0,12.0,73,0.00,,,0.00,Rainwise IP-100,2013-04-03 04:21:00,
2013-04-03 00:26:00,28.9,23.0,29.17,WSW,247,8.0,13.0,73,0.00,,,0.00,Rainwise IP-100,2013-04-03 04:26:00,
2013-04-03 00:31:00,28.9,23.0,29.17,West,270,3.0,19.0,73,0.00,,,0.00,Rainwise IP-100,2013-04-03 04:31:00,
2013-04-03 00:36:00,29.3,23.0,29.17,West,270,6.0,16.0,72,0.00,,,0.00,Rainwise IP-100,2013-04-03 04:36:00,
2013-04-03 00:41:00,29.4,23.0,29.17,West,270,11.0,16.0,72,0.00,,,0.00,Rainwise IP-100,2013-04-03 04:41:00,
2013-04-03 00:46:00,29.5,23.0,29.17,West,270,13.0,17.0,72,0.00,,,0.00,Rainwise IP-100,2013-04-03 04:46:00,
2013-04-03 00:51:00,29.4,23.0,29.17,WSW,247,5.0,22.0,74,0.00,,,0.00,Rainwise IP-100,2013-04-03 04:51:00,
2013-04-03 00:56:00,29.1,23.0,29.17,WSW,247,14.0,16.0,75,0.00,,,0.00,Rainwise IP-100,2013-04-03 04:56:00,
2013-04-03 01:01:00,28.9,23.0,29.17,WSW,247,8.0,17.0,76,0.00,,,0.00,Rainwise IP-100,2013-04-03 05:01:00,
2013-04-03 01:06:00,28.9,23.0,29.17,West,270,9.0,17.0,75,0.00,,,0.00,Rainwise IP-100,2013-04-03 05:06:00,
2013-04-03 01:11:00,28.7,23.0,29.17,West,270,15.0,16.0,76,0.00,,,0.00,Rainwise IP-100,2013-04-03 05:11:00,
2013-04-03 01:16:00,28.6,23.0,29.17,WSW,247,9.0,16.0,76,0.00,,,0.00,Rainwise IP-100,2013-04-03 05:16:00,
2013-04-03 01:21:00,28.4,23.0,29.18,West,270,6.0,12.0,77,0.00,,,0.00,Rainwise IP-100,2013-04-03 05:21:00,
2013-04-03 01:27:00,28.2,21.0,29.17,WSW,247,4.0,14.0,76,0.00,,,0.00,Rainwise IP-100,2013-04-03 05:27:00,
2013-04-03 01:32:00,28.2,21.0,29.17,West,270,8.0,14.0,75,0.00,,,0.00,Rainwise IP-100,2013-04-03 05:32:00,
2013-04-03 01:37:00,28.4,21.0,29.17,West,270,15.0,20.0,72,0.00,,,0.00,Rainwise IP-100,2013-04-03 05:37:00,
2013-04-03 01:42:00,28.4,21.0,29.17,West,270,11.0,17.0,72,0.00,,,0.00,Rainwise IP-100,2013-04-03 05:42:00,
2013-04-03 01:47:00,28.5,21.0,29.17,WSW,247,9.0,20.0,71,0.00,,,0.00,Rainwise IP-100,2013-04-03 05:47:00,
2013-04-03 01:52:00,28.3,21.0,29.17,West,270,11.0,18.0,72,0.00,,,0.00,Rainwise IP-100,2013-04-03 05:52:00,
2013-04-03 01:57:00,28.2,21.0,29.17,WSW,247,6.0,15.0,72,0.00,,,0.00,Rainwise IP-100,2013-04-03 05:57:00,
2013-04-03 02:02:00,28.3,21.0,29.17,West,270,12.0,18.0,72,0.00,,,0.00,Rainwise IP-100,2013-04-03 06:02:00,
2013-04-03 02:07:00,28.2,21.0,29.17,WSW,247,10.0,14.0,72,0.00,,,0.00,Rainwise IP-100,2013-04-03 06:07:00,
2013-04-03 02:12:00,28.3,21.0,29.17,WSW,247,10.0,18.0,71,0.00,,,0.00,Rainwise IP-100,2013-04-03 06:12:00,
2013-04-03 02:17:00,28.3,21.0,29.17,WNW,292,10.0,16.0,71,0.00,,,0.00,Rainwise IP-100,2013-04-03 06:17:00,
2013-04-03 02:22:00,28.2,21.0,29.17,West,270,9.0,15.0,71,0.00,,,0.00,Rainwise IP-100,2013-04-03 06:22:00,
2013-04-03 02:27:00,28.0,21.0,29.17,WSW,247,9.0,16.0,72,0.00,,,0.00,Rainwise IP-100,2013-04-03 06:27:00,
2013-04-03 02:32:00,27.8,21.0,29.17,West,270,11.0,15.0,72,0.00,,,0.00,Rainwise IP-100,2013-04-03 06:32:00,
2013-04-03 02:37:00,28.0,21.0,29.17,West,270,9.0,16.0,70,0.00,,,0.00,Rainwise IP-100,2013-04-03 06:37:00,
2013-04-03 02:42:00,27.9,21.0,29.17,West,270,9.0,15.0,71,0.00,,,0.00,Rainwise IP-100,2013-04-03 06:42:00,
2013-04-03 02:47:00,27.9,21.0,29.17,West,270,11.0,17.0,70,0.00,,,0.00,Rainwise IP-100,2013-04-03 06:47:00,
2013-04-03 02:52:00,27.8,21.0,29.17,WSW,247,11.0,15.0,71,0.00,,,0.00,Rainwise IP-100,2013-04-03 06:52:00,
2013-04-03 02:57:00,27.9,21.0,29.17,West,270,11.0,18.0,70,0.00,,,0.00,Rainwise IP-100,2013-04-03 06:57:00,
2013-04-03 03:02:00,28.0,21.0,29.17,West,270,11.0,14.0,70,0.00,,,0.00,Rainwise IP-100,2013-04-03 07:02:00,
2013-04-03 03:07:00,27.9,21.0,29.17,West,270,8.0,15.0,70,0.00,,,0.00,Rainwise IP-100,2013-04-03 07:07:00,
2013-04-03 03:12:00,27.9,21.0,29.17,WSW,247,11.0,14.0,70,0.00,,,0.00,Rainwise IP-100,2013-04-03 07:12:00,
2013-04-03 03:17:00,27.9,21.0,29.18,West,270,5.0,13.0,71,0.00,,,0.00,Rainwise IP-100,2013-04-03 07:17:00,
2013-04-03 03:22:00,27.9,21.0,29.17,West,270,6.0,16.0,71,0.00,,,0.00,Rainwise IP-100,2013-04-03 07:22:00,
2013-04-03 03:27:00,27.8,21.0,29.17,West,270,6.0,10.0,72,0.00,,,0.00,Rainwise IP-100,2013-04-03 07:27:00,
2013-04-03 03:32:00,27.9,21.0,29.18,West,270,6.0,11.0,71,0.00,,,0.00,Rainwise IP-100,2013-04-03 07:32:00,
2013-04-03 03:37:00,28.1,21.0,29.18,WNW,292,7.0,14.0,71,0.00,,,0.00,Rainwise IP-100,2013-04-03 07:37:00,
2013-04-03 03:42:00,27.9,21.0,29.18,West,270,8.0,14.0,71,0.00,,,0.00,Rainwise IP-100,2013-04-03 07:42:00,
2013-04-03 03:47:00,28.0,21.0,29.18,West,270,8.0,16.0,70,0.00,,,0.00,Rainwise IP-100,2013-04-03 07:47:00,
2013-04-03 03:52:00,28.1,21.0,29.18,West,270,6.0,15.0,72,0.00,,,0.00,Rainwise IP-100,2013-04-03 07:52:00,
2013-04-03 03:57:00,28.1,21.0,29.18,WNW,292,9.0,11.0,71,0.00,,,0.00,Rainwise IP-100,2013-04-03 07:57:00,
2013-04-03 04:02:00,28.1,21.0,29.18,WNW,292,9.0,9.0,71,0.00,,,0.00,Rainwise IP-100,2013-04-03 08:02:00,
2013-04-03 04:07:00,27.9,21.0,29.18,SW,225,9.0,16.0,72,0.00,,,0.00,Rainwise IP-100,2013-04-03 08:07:00,
2013-04-03 04:12:00,27.7,21.0,29.18,West,270,5.0,13.0,72,0.00,,,0.00,Rainwise IP-100,2013-04-03 08:12:00,
2013-04-03 04:17:00,27.5,21.0,29.18,West,270,11.0,16.0,73,0.00,,,0.00,Rainwise IP-100,2013-04-03 08:17:00,
2013-04-03 04:22:00,27.3,21.0,29.18,WSW,247,9.0,16.0,73,0.00,,,0.00,Rainwise IP-100,2013-04-03 08:22:00,
2013-04-03 04:27:00,27.0,21.0,29.18,WSW,247,7.0,15.0,75,0.00,,,0.00,Rainwise IP-100,2013-04-03 08:27:00,
2013-04-03 04:32:00,26.9,21.0,29.19,WNW,292,9.0,12.0,75,0.00,,,0.00,Rainwise IP-100,2013-04-03 08:32:00,
2013-04-03 04:37:00,26.9,21.0,29.19,West,270,8.0,15.0,75,0.00,,,0.00,Rainwise IP-100,2013-04-03 08:37:00,
2013-04-03 04:42:00,26.9,21.0,29.19,West,270,6.0,13.0,76,0.00,,,0.00,Rainwise IP-100,2013-04-03 08:42:00,
2013-04-03 04:47:00,26.9,21.0,29.19,West,270,9.0,12.0,75,0.00,,,0.00,Rainwise IP-100,2013-04-03 08:47:00,
2013-04-03 04:52:00,26.9,21.0,29.19,West,270,11.0,14.0,74,0.00,,,0.00,Rainwise IP-100,2013-04-03 08:52:00,
2013-04-03 04:57:00,27.0,21.0,29.19,West,270,7.0,12.0,74,0.00,,,0.00,Rainwise IP-100,2013-04-03 08:57:00,
2013-04-03 05:02:00,27.1,21.0,29.19,West,270,7.0,12.0,74,0.00,,,0.00,Rainwise IP-100,2013-04-03 09:02:00,
2013-04-03 05:07:00,26.9,21.0,29.19,WSW,247,8.0,12.0,76,0.00,,,0.00,Rainwise IP-100,2013-04-03 09:07:00,
2013-04-03 05:12:00,26.9,21.0,29.19,West,270,4.0,13.0,76,0.00,,,0.00,Rainwise IP-100,2013-04-03 09:12:00,
2013-04-03 05:17:00,26.9,21.0,29.19,WNW,292,11.0,12.0,76,0.00,,,0.00,Rainwise IP-100,2013-04-03 09:17:00,
2013-04-03 05:22:00,26.9,21.0,29.20,WSW,247,6.0,14.0,76,0.00,,,0.00,Rainwise IP-100,2013-04-03 09:22:00,
2013-04-03 05:27:00,26.9,21.0,29.20,West,270,8.0,11.0,75,0.00,,,0.00,Rainwise IP-100,2013-04-03 09:27:00,
2013-04-03 05:32:00,26.8,21.0,29.20,West,270,6.0,10.0,75,0.00,,,0.00,Rainwise IP-100,2013-04-03 09:32:00,
2013-04-03 05:37:00,26.8,21.0,29.20,WSW,247,4.0,11.0,75,0.00,,,0.00,Rainwise IP-100,2013-04-03 09:37:00,
2013-04-03 05:42:00,26.9,21.0,29.20,West,270,4.0,11.0,75,0.00,,,0.00,Rainwise IP-100,2013-04-03 09:42:00,
2013-04-03 05:47:00,26.9,21.0,29.21,WSW,247,5.0,10.0,76,0.00,,,0.00,Rainwise IP-100,2013-04-03 09:47:00,
2013-04-03 05:52:00,26.8,21.0,29.21,West,270,8.0,11.0,76,0.00,,,0.00,Rainwise IP-100,2013-04-03 09:52:00,
2013-04-03 05:57:00,26.7,21.0,29.21,West,270,9.0,9.0,76,0.00,,,0.00,Rainwise IP-100,2013-04-03 09:57:00,
2013-04-03 06:02:00,26.5,23.0,29.21,West,270,6.0,9.0,77,0.00,,,0.00,Rainwise IP-100,2013-04-03 10:02:00,
2013-04-03 06:07:00,26.7,23.0,29.21,SW,225,3.0,15.0,78,0.00,,,0.00,Rainwise IP-100,2013-04-03 10:07:00,
2013-04-03 06:12:00,26.6,23.0,29.21,West,270,13.0,13.0,81,0.00,,,0.00,Rainwise IP-100,2013-04-03 10:12:00,
2013-04-03 06:17:00,26.2,23.0,29.22,West,270,9.0,16.0,85,0.00,,,0.00,Rainwise IP-100,2013-04-03 10:17:00,
2013-04-03 06:22:00,26.1,23.0,29.22,WNW,292,4.0,13.0,84,0.00,,,0.00,Rainwise IP-100,2013-04-03 10:22:00,
2013-04-03 06:27:00,26.1,21.0,29.23,West,270,5.0,11.0,81,0.00,,,0.00,Rainwise IP-100,2013-04-03 10:27:00,
2013-04-03 06:32:00,26.4,21.0,29.23,West,270,7.0,12.0,79,0.00,,,0.00,Rainwise IP-100,2013-04-03 10:32:00,
2013-04-03 06:37:00,26.6,21.0,29.22,West,270,7.0,12.0,75,0.00,,,0.00,Rainwise IP-100,2013-04-03 10:37:00,
2013-04-03 06:42:00,26.7,21.0,29.22,West,270,9.0,15.0,73,0.00,,,0.00,Rainwise IP-100,2013-04-03 10:42:00,
2013-04-03 06:47:00,26.7,21.0,29.22,WSW,247,4.0,12.0,73,0.00,,,0.00,Rainwise IP-100,2013-04-03 10:47:00,
2013-04-03 06:52:00,26.6,21.0,29.23,West,270,5.0,13.0,73,0.00,,,0.00,Rainwise IP-100,2013-04-03 10:52:00,
2013-04-03 06:57:00,26.4,18.0,29.24,WNW,292,4.0,11.0,74,0.00,,,0.00,Rainwise IP-100,2013-04-03 10:57:00,
2013-04-03 07:02:00,26.2,21.0,29.24,WSW,247,2.0,11.0,75,0.00,,,0.00,Rainwise IP-100,2013-04-03 11:02:00,
2013-04-03 07:07:00,26.3,21.0,29.24,WNW,292,6.0,12.0,75,0.00,,,0.00,Rainwise IP-100,2013-04-03 11:07:00,
2013-04-03 07:12:00,26.4,21.0,29.25,West,270,4.0,10.0,76,0.00,,,0.00,Rainwise IP-100,2013-04-03 11:12:00,
2013-04-03 07:17:00,26.7,23.0,29.24,WNW,292,8.0,10.0,77,0.00,,,0.00,Rainwise IP-100,2013-04-03 11:17:00,
2013-04-03 07:22:00,26.9,23.0,29.24,WNW,292,7.0,12.0,77,0.00,,,0.00,Rainwise IP-100,2013-04-03 11:22:00,
2013-04-03 07:27:00,26.9,23.0,29.25,WNW,292,6.0,11.0,78,0.00,,,0.00,Rainwise IP-100,2013-04-03 11:27:00,
2013-04-03 07:32:00,27.1,23.0,29.25,West,270,10.0,10.0,79,0.00,,,0.00,Rainwise IP-100,2013-04-03 11:32:00,
2013-04-03 07:37:00,27.1,23.0,29.25,WNW,292,7.0,16.0,79,0.00,,,0.00,Rainwise IP-100,2013-04-03 11:37:00,
2013-04-03 07:42:00,27.1,23.0,29.25,West,270,4.0,11.0,78,0.00,,,0.00,Rainwise IP-100,2013-04-03 11:42:00,
2013-04-03 07:47:00,27.1,23.0,29.25,West,270,5.0,12.0,77,0.00,,,0.00,Rainwise IP-100,2013-04-03 11:47:00,
2013-04-03 07:52:00,27.3,23.0,29.25,WNW,292,6.0,14.0,78,0.00,,,0.00,Rainwise IP-100,2013-04-03 11:52:00,
2013-04-03 07:57:00,27.5,23.0,29.25,West,270,9.0,14.0,77,0.00,,,0.00,Rainwise IP-100,2013-04-03 11:57:00,
2013-04-03 08:02:00,27.6,21.0,29.26,West,270,6.0,14.0,76,0.00,,,0.00,Rainwise IP-100,2013-04-03 12:02:00,
2013-04-03 08:07:00,27.9,21.0,29.25,WNW,292,10.0,13.0,76,0.00,,,0.00,Rainwise IP-100,2013-04-03 12:07:00,
2013-04-03 08:12:00,27.7,21.0,29.25,WNW,292,12.0,17.0,72,0.00,,,0.00,Rainwise IP-100,2013-04-03 12:12:00,
2013-04-03 08:17:00,27.8,21.0,29.26,West,270,12.0,17.0,71,0.00,,,0.00,Rainwise IP-100,2013-04-03 12:17:00,
2013-04-03 08:22:00,28.1,21.0,29.26,West,270,5.0,14.0,71,0.00,,,0.00,Rainwise IP-100,2013-04-03 12:22:00,
2013-04-03 08:27:00,27.8,21.0,29.26,West,270,11.0,16.0,70,0.00,,,0.00,Rainwise IP-100,2013-04-03 12:27:00,
2013-04-03 08:32:00,27.9,21.0,29.26,West,270,11.0,16.0,70,0.00,,,0.00,Rainwise IP-100,2013-04-03 12:32:00,
2013-04-03 08:38:00,27.8,21.0,29.26,West,270,9.0,14.0,71,0.00,,,0.00,Rainwise IP-100,2013-04-03 12:38:00,
2013-04-03 08:43:00,28.2,18.0,29.26,WSW,247,13.0,17.0,66,0.00,,,0.00,Rainwise IP-100,2013-04-03 12:43:00,
2013-04-03 08:48:00,28.7,18.0,29.27,WNW,292,9.0,21.0,64,0.00,,,0.00,Rainwise IP-100,2013-04-03 12:48:00,
2013-04-03 08:53:00,28.7,18.0,29.27,West,270,13.0,19.0,64,0.00,,,0.00,Rainwise IP-100,2013-04-03 12:53:00,
2013-04-03 08:58:00,29.3,18.0,29.27,WNW,292,14.0,19.0,65,0.00,,,0.00,Rainwise IP-100,2013-04-03 12:58:00,
2013-04-03 09:03:00,29.4,18.0,29.27,NW,315,11.0,19.0,62,0.00,,,0.00,Rainwise IP-100,2013-04-03 13:03:00,
2013-04-03 09:08:00,29.2,18.0,29.27,West,270,12.0,25.0,64,0.00,,,0.00,Rainwise IP-100,2013-04-03 13:08:00,
2013-04-03 09:13:00,29.3,21.0,29.27,West,270,8.0,18.0,67,0.00,,,0.00,Rainwise IP-100,2013-04-03 13:13:00,
2013-04-03 09:18:00,28.9,21.0,29.27,WSW,247,6.0,14.0,67,0.00,,,0.00,Rainwise IP-100,2013-04-03 13:18:00,
2013-04-03 09:23:00,28.5,21.0,29.27,WSW,247,11.0,18.0,68,0.00,,,0.00,Rainwise IP-100,2013-04-03 13:23:00,
2013-04-03 09:28:00,28.4,21.0,29.27,WSW,247,9.0,16.0,70,0.00,,,0.00,Rainwise IP-100,2013-04-03 13:28:00,
2013-04-03 09:33:00,28.6,21.0,29.27,WSW,247,11.0,16.0,70,0.00,,,0.00,Rainwise IP-100,2013-04-03 13:33:00,
2013-04-03 09:38:00,28.8,21.0,29.27,West,270,15.0,17.0,69,0.00,,,0.00,Rainwise IP-100,2013-04-03 13:38:00,
2013-04-03 09:43:00,28.5,21.0,29.27,WNW,292,6.0,19.0,69,0.00,,,0.00,Rainwise IP-100,2013-04-03 13:43:00,
2013-04-03 09:48:00,29.5,23.0,29.28,WNW,292,8.0,17.0,68,0.00,,,0.00,Rainwise IP-100,2013-04-03 13:48:00,
2013-04-03 09:53:00,29.6,21.0,29.28,West,270,14.0,21.0,66,0.00,,,0.00,Rainwise IP-100,2013-04-03 13:53:00,
2013-04-03 09:58:00,29.7,21.0,29.28,West,270,10.0,21.0,67,0.00,,,0.00,Rainwise IP-100,2013-04-03 13:58:00,
2013-04-03 10:03:00,29.6,21.0,29.28,West,270,14.0,26.0,65,0.00,,,0.00,Rainwise IP-100,2013-04-03 14:03:00,
2013-04-03 10:08:00,29.9,21.0,29.28,West,270,12.0,22.0,62,0.00,,,0.00,Rainwise IP-100,2013-04-03 14:08:00,
2013-04-03 10:13:00,30.3,21.0,29.28,WNW,292,9.0,20.0,62,0.00,,,0.00,Rainwise IP-100,2013-04-03 14:13:00,
2013-04-03 10:18:00,30.5,18.0,29.29,West,270,9.0,22.0,61,0.00,,,0.00,Rainwise IP-100,2013-04-03 14:18:00,
2013-04-03 10:23:00,31.0,18.0,29.29,WNW,292,6.0,17.0,61,0.00,,,0.00,Rainwise IP-100,2013-04-03 14:23:00,
2013-04-03 10:28:00,30.8,18.0,29.29,West,270,11.0,22.0,59,0.00,,,0.00,Rainwise IP-100,2013-04-03 14:28:00,
2013-04-03 10:33:00,30.6,18.0,29.29,WNW,292,4.0,17.0,57,0.00,,,0.00,Rainwise IP-100,2013-04-03 14:33:00,
2013-04-03 10:38:00,30.9,16.0,29.29,WNW,292,8.0,20.0,55,0.00,,,0.00,Rainwise IP-100,2013-04-03 14:38:00,
2013-04-03 10:43:00,30.9,18.0,29.29,West,270,8.0,21.0,56,0.00,,,0.00,Rainwise IP-100,2013-04-03 14:43:00,
2013-04-03 10:48:00,30.5,16.0,29.29,WNW,292,11.0,20.0,55,0.00,,,0.00,Rainwise IP-100,2013-04-03 14:48:00,
2013-04-03 10:53:00,30.0,16.0,29.29,NW,315,13.0,19.0,55,0.00,,,0.00,Rainwise IP-100,2013-04-03 14:53:00,
2013-04-03 10:58:00,31.1,16.0,29.29,WSW,247,20.0,24.0,54,0.00,,,0.00,Rainwise IP-100,2013-04-03 14:58:00,
2013-04-03 11:03:00,31.7,16.0,29.29,WSW,247,12.0,22.0,52,0.00,,,0.00,Rainwise IP-100,2013-04-03 15:03:00,
2013-04-03 11:08:00,32.2,18.0,29.30,WNW,292,13.0,22.0,55,0.00,,,0.00,Rainwise IP-100,2013-04-03 15:08:00,
2013-04-03 11:13:00,31.5,18.0,29.30,West,270,9.0,21.0,53,0.00,,,0.00,Rainwise IP-100,2013-04-03 15:13:00,
2013-04-03 11:18:00,32.0,18.0,29.30,WNW,292,9.0,19.0,53,0.00,,,0.00,Rainwise IP-100,2013-04-03 15:18:00,
2013-04-03 11:23:00,32.7,18.0,29.30,West,270,9.0,20.0,54,0.00,,,0.00,Rainwise IP-100,2013-04-03 15:23:00,
2013-04-03 11:28:00,31.9,18.0,29.30,West,270,10.0,22.0,53,0.00,,,0.00,Rainwise IP-100,2013-04-03 15:28:00,
2013-04-03 11:33:00,31.8,16.0,29.31,WNW,292,15.0,21.0,52,0.00,,,0.00,Rainwise IP-100,2013-04-03 15:33:00,
2013-04-03 11:38:00,32.9,18.0,29.31,WNW,292,13.0,21.0,54,0.00,,,0.00,Rainwise IP-100,2013-04-03 15:38:00,
2013-04-03 11:43:00,31.3,16.0,29.31,WNW,292,10.0,22.0,53,0.00,,,0.00,Rainwise IP-100,2013-04-03 15:43:00,
2013-04-03 11:48:00,31.3,16.0,29.31,WNW,292,15.0,19.0,54,0.00,,,0.00,Rainwise IP-100,2013-04-03 15:48:00,
2013-04-03 11:53:00,32.7,18.0,29.31,WNW,292,5.0,19.0,53,0.00,,,0.00,Rainwise IP-100,2013-04-03 15:53:00,
2013-04-03 11:58:00,32.4,18.0,29.31,WSW,247,10.0,20.0,53,0.00,,,0.00,Rainwise IP-100,2013-04-03 15:58:00,
2013-04-03 12:03:00,32.3,18.0,29.31,WSW,247,11.0,23.0,53,0.00,,,0.00,Rainwise IP-100,2013-04-03 16:03:00,
2013-04-03 12:08:00,31.7,18.0,29.31,WNW,292,11.0,20.0,58,0.00,,,0.00,Rainwise IP-100,2013-04-03 16:08:00,
2013-04-03 12:13:00,32.0,18.0,29.31,WNW,292,11.0,20.0,58,0.00,,,0.00,Rainwise IP-100,2013-04-03 16:13:00,
2013-04-03 12:18:00,32.0,21.0,29.32,WSW,247,6.0,17.0,59,0.00,,,0.00,Rainwise IP-100,2013-04-03 16:18:00,
2013-04-03 12:23:00,32.3,18.0,29.31,West,270,14.0,19.0,54,0.00,,,0.00,Rainwise IP-100,2013-04-03 16:23:00,
2013-04-03 12:28:00,33.1,21.0,29.31,WNW,292,11.0,17.0,57,0.00,,,0.00,Rainwise IP-100,2013-04-03 16:28:00,
2013-04-03 12:33:00,33.3,21.0,29.32,WSW,247,10.0,18.0,56,0.00,,,0.00,Rainwise IP-100,2013-04-03 16:33:00,
2013-04-03 12:38:00,33.4,18.0,29.32,WNW,292,9.0,18.0,54,0.00,,,0.00,Rainwise IP-100,2013-04-03 16:38:00,
2013-04-03 12:43:00,32.8,21.0,29.32,WNW,292,18.0,18.0,57,0.00,,,0.00,Rainwise IP-100,2013-04-03 16:43:00,
2013-04-03 12:48:00,32.4,18.0,29.32,West,270,6.0,22.0,57,0.00,,,0.00,Rainwise IP-100,2013-04-03 16:48:00,
2013-04-03 12:53:00,33.5,23.0,29.32,WNW,292,15.0,19.0,59,0.00,,,0.00,Rainwise IP-100,2013-04-03 16:53:00,
2013-04-03 12:58:00,32.7,21.0,29.32,WSW,247,6.0,21.0,60,0.00,,,0.00,Rainwise IP-100,2013-04-03 16:58:00,
2013-04-03 13:03:00,33.0,23.0,29.31,NW,315,8.0,17.0,63,0.00,,,0.00,Rainwise IP-100,2013-04-03 17:03:00,
2013-04-03 13:08:00,33.6,21.0,29.31,WNW,292,14.0,22.0,54,0.00,,,0.00,Rainwise IP-100,2013-04-03 17:08:00,
2013-04-03 13:13:00,33.1,21.0,29.31,West,270,14.0,24.0,60,0.00,,,0.00,Rainwise IP-100,2013-04-03 17:13:00,
2013-04-03 13:18:00,32.9,23.0,29.31,West,270,12.0,19.0,62,0.00,,,0.00,Rainwise IP-100,2013-04-03 17:18:00,
2013-04-03 13:23:00,33.8,23.0,29.32,West,270,18.0,20.0,62,0.00,,,0.00,Rainwise IP-100,2013-04-03 17:23:00,
2013-04-03 13:28:00,33.9,21.0,29.31,WNW,292,14.0,24.0,56,0.00,,,0.00,Rainwise IP-100,2013-04-03 17:28:00,
2013-04-03 13:33:00,33.9,23.0,29.31,West,270,15.0,21.0,59,0.00,,,0.00,Rainwise IP-100,2013-04-03 17:33:00,
2013-04-03 13:38:00,33.4,23.0,29.32,West,270,10.0,24.0,65,0.00,,,0.00,Rainwise IP-100,2013-04-03 17:38:00,
2013-04-03 13:43:00,34.2,24.0,29.32,West,270,17.0,20.0,65,0.00,,,0.00,Rainwise IP-100,2013-04-03 17:43:00,
2013-04-03 13:49:00,34.3,23.0,29.32,West,270,13.0,22.0,58,0.00,,,0.00,Rainwise IP-100,2013-04-03 17:49:00,
2013-04-03 13:54:00,33.9,21.0,29.31,West,270,17.0,19.0,57,0.00,,,0.00,Rainwise IP-100,2013-04-03 17:54:00,
2013-04-03 13:59:00,33.3,18.0,29.31,West,270,14.0,19.0,54,0.00,,,0.00,Rainwise IP-100,2013-04-03 17:59:00,
2013-04-03 14:04:00,33.4,21.0,29.31,WNW,292,12.0,21.0,57,0.00,,,0.00,Rainwise IP-100,2013-04-03 18:04:00,
2013-04-03 14:09:00,34.6,21.0,29.31,WSW,247,16.0,20.0,57,0.00,,,0.00,Rainwise IP-100,2013-04-03 18:09:00,
2013-04-03 14:14:00,35.5,18.0,29.32,West,270,17.0,21.0,49,0.00,,,0.00,Rainwise IP-100,2013-04-03 18:14:00,
2013-04-03 14:19:00,34.3,21.0,29.32,West,270,19.0,22.0,53,0.00,,,0.00,Rainwise IP-100,2013-04-03 18:19:00,
2013-04-03 14:24:00,34.2,18.0,29.31,WSW,247,6.0,26.0,52,0.00,,,0.00,Rainwise IP-100,2013-04-03 18:24:00,
2013-04-03 14:29:00,34.2,18.0,29.32,WNW,292,12.0,21.0,49,0.00,,,0.00,Rainwise IP-100,2013-04-03 18:29:00,
2013-04-03 14:34:00,33.8,21.0,29.31,West,270,16.0,24.0,56,0.00,,,0.00,Rainwise IP-100,2013-04-03 18:34:00,
2013-04-03 14:39:00,34.3,21.0,29.33,SW,225,7.0,24.0,55,0.00,,,0.00,Rainwise IP-100,2013-04-03 18:39:00,
2013-04-03 14:44:00,35.0,18.0,29.33,WSW,247,19.0,30.0,49,0.00,,,0.00,Rainwise IP-100,2013-04-03 18:44:00,
2013-04-03 14:49:00,34.9,18.0,29.33,WSW,247,7.0,26.0,48,0.00,,,0.00,Rainwise IP-100,2013-04-03 18:49:00,
2013-04-03 14:54:00,35.5,18.0,29.33,West,270,14.0,30.0,46,0.00,,,0.00,Rainwise IP-100,2013-04-03 18:54:00,
2013-04-03 14:59:00,35.4,18.0,29.32,WNW,292,10.0,23.0,49,0.00,,,0.00,Rainwise IP-100,2013-04-03 18:59:00,
2013-04-03 15:04:00,35.9,18.0,29.34,WSW,247,19.0,25.0,47,0.00,,,0.00,Rainwise IP-100,2013-04-03 19:04:00,
2013-04-03 15:09:00,34.7,18.0,29.34,West,270,11.0,23.0,48,0.00,,,0.00,Rainwise IP-100,2013-04-03 19:09:00,
2013-04-03 15:14:00,34.7,18.0,29.33,NNW,337,11.0,27.0,48,0.00,,,0.00,Rainwise IP-100,2013-04-03 19:14:00,
2013-04-03 15:19:00,34.8,18.0,29.33,WNW,292,9.0,21.0,49,0.00,,,0.00,Rainwise IP-100,2013-04-03 19:19:00,
2013-04-03 15:24:00,33.9,18.0,29.34,WNW,292,16.0,24.0,48,0.00,,,0.00,Rainwise IP-100,2013-04-03 19:24:00,
2013-04-03 15:29:00,33.8,18.0,29.34,WNW,292,9.0,22.0,50,0.00,,,0.00,Rainwise IP-100,2013-04-03 19:29:00,
2013-04-03 15:34:00,33.9,18.0,29.34,West,270,17.0,24.0,49,0.00,,,0.00,Rainwise IP-100,2013-04-03 19:34:00,
2013-04-03 15:39:00,34.0,18.0,29.34,WSW,247,11.0,23.0,48,0.00,,,0.00,Rainwise IP-100,2013-04-03 19:39:00,
2013-04-03 15:44:00,34.2,18.0,29.33,WNW,292,17.0,26.0,49,0.00,,,0.00,Rainwise IP-100,2013-04-03 19:44:00,
2013-04-03 15:49:00,34.6,18.0,29.34,WNW,292,5.0,24.0,48,0.00,,,0.00,Rainwise IP-100,2013-04-03 19:49:00,
2013-04-03 15:54:00,35.3,16.0,29.34,WNW,292,11.0,22.0,45,0.00,,,0.00,Rainwise IP-100,2013-04-03 19:54:00,
2013-04-03 15:59:00,34.8,16.0,29.34,WNW,292,18.0,21.0,45,0.00,,,0.00,Rainwise IP-100,2013-04-03 19:59:00,
2013-04-03 16:04:00,35.9,16.0,29.35,WNW,292,11.0,25.0,45,0.00,,,0.00,Rainwise IP-100,2013-04-03 20:04:00,
2013-04-03 16:09:00,36.0,16.0,29.34,WNW,292,22.0,24.0,44,0.00,,,0.00,Rainwise IP-100,2013-04-03 20:09:00,
2013-04-03 16:14:00,35.1,16.0,29.34,WNW,292,14.0,26.0,44,0.00,,,0.00,Rainwise IP-100,2013-04-03 20:14:00,
2013-04-03 16:19:00,35.1,16.0,29.35,WNW,292,7.0,17.0,46,0.00,,,0.00,Rainwise IP-100,2013-04-03 20:19:00,
2013-04-03 16:24:00,35.1,16.0,29.35,WNW,292,13.0,22.0,46,0.00,,,0.00,Rainwise IP-100,2013-04-03 20:24:00,
2013-04-03 16:29:00,35.3,16.0,29.35,WNW,292,11.0,26.0,44,0.00,,,0.00,Rainwise IP-100,2013-04-03 20:29:00,
2013-04-03 16:34:00,35.7,16.0,29.35,West,270,19.0,22.0,44,0.00,,,0.00,Rainwise IP-100,2013-04-03 20:34:00,
2013-04-03 16:39:00,35.3,14.0,29.35,WSW,247,18.0,26.0,41,0.00,,,0.00,Rainwise IP-100,2013-04-03 20:39:00,
2013-04-03 16:44:00,35.8,16.0,29.35,West,270,15.0,22.0,44,0.00,,,0.00,Rainwise IP-100,2013-04-03 20:44:00,
2013-04-03 16:49:00,35.5,16.0,29.34,West,270,14.0,24.0,42,0.00,,,0.00,Rainwise IP-100,2013-04-03 20:49:00,
2013-04-03 16:54:00,35.8,16.0,29.34,West,270,16.0,24.0,44,0.00,,,0.00,Rainwise IP-100,2013-04-03 20:54:00,
2013-04-03 16:59:00,35.6,16.0,29.35,West,270,16.0,25.0,44,0.00,,,0.00,Rainwise IP-100,2013-04-03 20:59:00,
2013-04-03 17:04:00,35.7,16.0,29.35,WSW,247,9.0,23.0,45,0.00,,,0.00,Rainwise IP-100,2013-04-03 21:04:00,
2013-04-03 17:09:00,35.6,16.0,29.35,West,270,15.0,24.0,45,0.00,,,0.00,Rainwise IP-100,2013-04-03 21:09:00,
2013-04-03 17:14:00,35.8,16.0,29.35,West,270,7.0,20.0,45,0.00,,,0.00,Rainwise IP-100,2013-04-03 21:14:00,
2013-04-03 17:19:00,35.8,18.0,29.35,WSW,247,10.0,19.0,46,0.00,,,0.00,Rainwise IP-100,2013-04-03 21:19:00,
2013-04-03 17:24:00,35.7,18.0,29.35,WSW,247,9.0,17.0,46,0.00,,,0.00,Rainwise IP-100,2013-04-03 21:24:00,
2013-04-03 17:29:00,35.6,18.0,29.36,WNW,292,19.0,20.0,46,0.00,,,0.00,Rainwise IP-100,2013-04-03 21:29:00,
2013-04-03 17:34:00,35.3,16.0,29.35,WNW,292,14.0,22.0,46,0.00,,,0.00,Rainwise IP-100,2013-04-03 21:34:00,
2013-04-03 17:39:00,35.9,18.0,29.36,West,270,11.0,21.0,49,0.00,,,0.00,Rainwise IP-100,2013-04-03 21:39:00,
2013-04-03 17:44:00,35.6,18.0,29.36,WNW,292,9.0,17.0,47,0.00,,,0.00,Rainwise IP-100,2013-04-03 21:44:00,
2013-04-03 17:49:00,35.4,16.0,29.37,SW,225,9.0,19.0,47,0.00,,,0.00,Rainwise IP-100,2013-04-03 21:49:00,
2013-04-03 17:54:00,35.0,18.0,29.36,West,270,16.0,19.0,48,0.00,,,0.00,Rainwise IP-100,2013-04-03 21:54:00,
2013-04-03 17:59:00,35.3,16.0,29.35,WSW,247,18.0,20.0,47,0.00,,,0.00,Rainwise IP-100,2013-04-03 21:59:00,
2013-04-03 18:04:00,34.9,16.0,29.36,WNW,292,16.0,22.0,47,0.00,,,0.00,Rainwise IP-100,2013-04-03 22:04:00,
2013-04-03 18:09:00,35.1,18.0,29.36,West,270,12.0,18.0,48,0.00,,,0.00,Rainwise IP-100,2013-04-03 22:09:00,
2013-04-03 18:14:00,35.1,16.0,29.36,West,270,11.0,17.0,46,0.00,,,0.00,Rainwise IP-100,2013-04-03 22:14:00,
2013-04-03 18:19:00,34.9,16.0,29.37,West,270,16.0,22.0,46,0.00,,,0.00,Rainwise IP-100,2013-04-03 22:19:00,
2013-04-03 18:24:00,34.8,18.0,29.37,West,270,6.0,22.0,48,0.00,,,0.00,Rainwise IP-100,2013-04-03 22:24:00,
2013-04-03 18:29:00,34.8,18.0,29.36,West,270,12.0,17.0,49,0.00,,,0.00,Rainwise IP-100,2013-04-03 22:29:00,
2013-04-03 18:34:00,34.8,18.0,29.37,West,270,14.0,18.0,48,0.00,,,0.00,Rainwise IP-100,2013-04-03 22:34:00,
2013-04-03 18:40:00,34.3,18.0,29.37,West,270,12.0,16.0,49,0.00,,,0.00,Rainwise IP-100,2013-04-03 22:40:00,
2013-04-03 18:45:00,33.9,18.0,29.37,West,270,7.0,16.0,50,0.00,,,0.00,Rainwise IP-100,2013-04-03 22:45:00,
2013-04-03 18:50:00,34.2,16.0,29.37,WSW,247,10.0,18.0,47,0.00,,,0.00,Rainwise IP-100,2013-04-03 22:50:00,
2013-04-03 18:55:00,34.2,18.0,29.37,WNW,292,7.0,16.0,49,0.00,,,0.00,Rainwise IP-100,2013-04-03 22:55:00,
2013-04-03 19:00:00,33.9,18.0,29.37,West,270,3.0,11.0,52,0.00,,,0.00,Rainwise IP-100,2013-04-03 23:00:00,
2013-04-03 19:05:00,33.9,18.0,29.38,West,270,6.0,14.0,50,0.00,,,0.00,Rainwise IP-100,2013-04-03 23:05:00,
2013-04-03 19:10:00,33.7,18.0,29.38,WSW,247,10.0,17.0,50,0.00,,,0.00,Rainwise IP-100,2013-04-03 23:10:00,
2013-04-03 19:15:00,33.5,18.0,29.38,WSW,247,5.0,15.0,52,0.00,,,0.00,Rainwise IP-100,2013-04-03 23:15:00,
2013-04-03 19:20:00,33.2,18.0,29.39,WSW,247,4.0,11.0,54,0.00,,,0.00,Rainwise IP-100,2013-04-03 23:20:00,
2013-04-03 19:25:00,33.0,18.0,29.39,WSW,247,6.0,11.0,54,0.00,,,0.00,Rainwise IP-100,2013-04-03 23:25:00,
2013-04-03 19:30:00,32.9,18.0,29.39,WSW,247,6.0,11.0,55,0.00,,,0.00,Rainwise IP-100,2013-04-03 23:30:00,
2013-04-03 19:35:00,32.8,18.0,29.39,West,270,7.0,12.0,54,0.00,,,0.00,Rainwise IP-100,2013-04-03 23:35:00,
2013-04-03 19:40:00,32.9,18.0,29.39,West,270,3.0,13.0,53,0.00,,,0.00,Rainwise IP-100,2013-04-03 23:40:00,
2013-04-03 19:45:00,32.6,18.0,29.39,West,270,6.0,9.0,55,0.00,,,0.00,Rainwise IP-100,2013-04-03 23:45:00,
2013-04-03 19:50:00,32.7,18.0,29.39,WNW,292,5.0,10.0,50,0.00,,,0.00,Rainwise IP-100,2013-04-03 23:50:00,
2013-04-03 19:55:00,32.7,18.0,29.39,West,270,3.0,13.0,50,0.00,,,0.00,Rainwise IP-100,2013-04-03 23:55:00,
2013-04-03 20:00:00,32.4,16.0,29.40,WSW,247,7.0,8.0,52,0.00,,,0.00,Rainwise IP-100,2013-04-04 00:00:00,
2013-04-03 20:05:00,32.3,16.0,29.40,West,270,3.0,8.0,52,0.00,,,0.00,Rainwise IP-100,2013-04-04 00:05:00,
2013-04-03 20:10:00,32.3,16.0,29.40,WNW,292,4.0,6.0,52,0.00,,,0.00,Rainwise IP-100,2013-04-04 00:10:00,
2013-04-03 20:15:00,32.3,16.0,29.41,West,270,5.0,8.0,52,0.00,,,0.00,Rainwise IP-100,2013-04-04 00:15:00,
2013-04-03 20:20:00,31.9,18.0,29.41,West,270,6.0,9.0,53,0.00,,,0.00,Rainwise IP-100,2013-04-04 00:20:00,
2013-04-03 20:25:00,32.3,16.0,29.41,West,270,4.0,13.0,51,0.00,,,0.00,Rainwise IP-100,2013-04-04 00:25:00,
2013-04-03 20:30:00,32.3,16.0,29.41,West,270,9.0,11.0,52,0.00,,,0.00,Rainwise IP-100,2013-04-04 00:30:00,
2013-04-03 20:35:00,32.2,18.0,29.41,West,270,9.0,10.0,53,0.00,,,0.00,Rainwise IP-100,2013-04-04 00:35:00,
2013-04-03 20:40:00,32.1,18.0,29.42,West,270,2.0,10.0,53,0.00,,,0.00,Rainwise IP-100,2013-04-04 00:40:00,
2013-04-03 20:45:00,31.8,18.0,29.42,West,270,7.0,9.0,54,0.00,,,0.00,Rainwise IP-100,2013-04-04 00:45:00,
2013-04-03 20:50:00,32.0,18.0,29.42,WSW,247,6.0,9.0,53,0.00,,,0.00,Rainwise IP-100,2013-04-04 00:50:00,
2013-04-03 20:55:00,31.9,18.0,29.42,West,270,3.0,10.0,53,0.00,,,0.00,Rainwise IP-100,2013-04-04 00:55:00,
2013-04-03 21:00:00,31.8,18.0,29.43,West,270,4.0,9.0,53,0.00,,,0.00,Rainwise IP-100,2013-04-04 01:00:00,
2013-04-03 21:05:00,31.6,18.0,29.43,West,270,6.0,7.0,54,0.00,,,0.00,Rainwise IP-100,2013-04-04 01:05:00,
2013-04-03 21:10:00,31.7,18.0,29.43,West,270,4.0,10.0,54,0.00,,,0.00,Rainwise IP-100,2013-04-04 01:10:00,
2013-04-03 21:15:00,31.5,18.0,29.43,NW,315,5.0,10.0,55,0.00,,,0.00,Rainwise IP-100,2013-04-04 01:15:00,
2013-04-03 21:20:00,31.8,16.0,29.43,West,270,7.0,11.0,52,0.00,,,0.00,Rainwise IP-100,2013-04-04 01:20:00,
2013-04-03 21:25:00,31.7,18.0,29.43,West,270,3.0,12.0,54,0.00,,,0.00,Rainwise IP-100,2013-04-04 01:25:00,
2013-04-03 21:30:00,31.8,16.0,29.43,West,270,7.0,14.0,52,0.00,,,0.00,Rainwise IP-100,2013-04-04 01:30:00,
2013-04-03 21:35:00,31.6,18.0,29.44,WSW,247,5.0,14.0,54,0.00,,,0.00,Rainwise IP-100,2013-04-04 01:35:00,
2013-04-03 21:40:00,31.4,16.0,29.44,WSW,247,3.0,11.0,55,0.00,,,0.00,Rainwise IP-100,2013-04-04 01:40:00,
2013-04-03 21:46:00,30.8,16.0,29.44,WSW,247,2.0,4.0,55,0.00,,,0.00,Rainwise IP-100,2013-04-04 01:46:00,
2013-04-03 21:51:00,30.5,18.0,29.44,SW,225,6.0,7.0,57,0.00,,,0.00,Rainwise IP-100,2013-04-04 01:51:00,
2013-04-03 21:56:00,30.9,18.0,29.44,WSW,247,4.0,8.0,56,0.00,,,0.00,Rainwise IP-100,2013-04-04 01:56:00,
2013-04-03 22:01:00,30.6,18.0,29.44,West,270,4.0,7.0,58,0.00,,,0.00,Rainwise IP-100,2013-04-04 02:01:00,
2013-04-03 22:06:00,30.4,18.0,29.44,WSW,247,3.0,6.0,59,0.00,,,0.00,Rainwise IP-100,2013-04-04 02:06:00,
2013-04-03 22:12:00,30.2,18.0,29.45,WSW,247,4.0,6.0,60,0.00,,,0.00,Rainwise IP-100,2013-04-04 02:12:00,
2013-04-03 22:17:00,29.9,18.0,29.45,WSW,247,1.0,6.0,61,0.00,,,0.00,Rainwise IP-100,2013-04-04 02:17:00,
2013-04-03 22:22:00,29.9,18.0,29.45,West,270,4.0,7.0,61,0.00,,,0.00,Rainwise IP-100,2013-04-04 02:22:00,
2013-04-03 22:27:00,30.0,18.0,29.45,WSW,247,2.0,7.0,61,0.00,,,0.00,Rainwise IP-100,2013-04-04 02:27:00,
2013-04-03 22:32:00,30.4,18.0,29.45,WSW,247,2.0,9.0,59,0.00,,,0.00,Rainwise IP-100,2013-04-04 02:32:00,
2013-04-03 22:37:00,30.0,18.0,29.45,WSW,247,1.0,5.0,60,0.00,,,0.00,Rainwise IP-100,2013-04-04 02:37:00,
2013-04-03 22:42:00,29.9,18.0,29.45,SW,225,7.0,10.0,60,0.00,,,0.00,Rainwise IP-100,2013-04-04 02:42:00,
2013-04-03 22:47:00,30.0,18.0,29.45,WSW,247,5.0,7.0,60,0.00,,,0.00,Rainwise IP-100,2013-04-04 02:47:00,
2013-04-03 22:52:00,29.9,18.0,29.45,WSW,247,2.0,6.0,61,0.00,,,0.00,Rainwise IP-100,2013-04-04 02:52:00,
2013-04-03 22:57:00,29.8,18.0,29.45,West,270,3.0,6.0,61,0.00,,,0.00,Rainwise IP-100,2013-04-04 02:57:00,
2013-04-03 23:02:00,29.6,21.0,29.45,WSW,247,2.0,6.0,62,0.00,,,0.00,Rainwise IP-100,2013-04-04 03:02:00,
2013-04-03 23:07:00,29.8,18.0,29.45,WSW,247,2.0,8.0,60,0.00,,,0.00,Rainwise IP-100,2013-04-04 03:07:00,
2013-04-03 23:12:00,29.7,21.0,29.44,WSW,247,3.0,7.0,62,0.00,,,0.00,Rainwise IP-100,2013-04-04 03:12:00,
2013-04-03 23:17:00,29.4,18.0,29.44,WSW,247,1.0,4.0,62,0.00,,,0.00,Rainwise IP-100,2013-04-04 03:17:00,
2013-04-03 23:22:00,29.2,18.0,29.44,West,270,2.0,3.0,62,0.00,,,0.00,Rainwise IP-100,2013-04-04 03:22:00,
2013-04-03 23:27:00,29.2,18.0,29.44,West,270,1.0,4.0,62,0.00,,,0.00,Rainwise IP-100,2013-04-04 03:27:00,
2013-04-03 23:32:00,29.2,18.0,29.43,West,270,2.0,6.0,62,0.00,,,0.00,Rainwise IP-100,2013-04-04 03:32:00,
2013-04-03 23:37:00,28.7,18.0,29.43,WSW,247,2.0,3.0,64,0.00,,,0.00,Rainwise IP-100,2013-04-04 03:37:00,
2013-04-03 23:42:00,28.7,18.0,29.43,WSW,247,3.0,4.0,64,0.00,,,0.00,Rainwise IP-100,2013-04-04 03:42:00,
2013-04-03 23:47:00,28.7,18.0,29.43,West,270,2.0,5.0,64,0.00,,,0.00,Rainwise IP-100,2013-04-04 03:47:00,
2013-04-03 23:52:00,28.3,18.0,29.43,WSW,247,1.0,2.0,65,0.00,,,0.00,Rainwise IP-100,2013-04-04 03:52:00,
2013-04-03 23:57:00,28.3,18.0,29.43,WSW,247,3.0,3.0,65,0.00,,,0.00,Rainwise IP-100,2013-04-04 03:57:00,